Time;durP1;ratioP1;P1;durP2;ratioP2;P2;SDS_P1;SDS_P2;PMS_P1;PMS_P2;Temp;Humidity;BMP_temperature;BMP_pressure;BME280_temperature;BME280_humidity;BME280_pressure;Samples;Min_cycle;Max_cycle;Signal;HPM_P1;HPM_P2
2020/12/10 00:00:13;;;;;;;13.65;8.50;;;0.80;99.90;;;;;;4973277;28;20211;-76
2020/12/10 00:02:38;;;;;;;12.30;7.60;;;0.80;99.90;;;;;;4973811;28;20275;-76
2020/12/10 00:05:09;;;;;;;15.27;7.60;;;0.80;99.90;;;;;;4972659;28;20764;-76
2020/12/10 00:07:35;;;;;;;8.18;5.55;;;0.80;99.90;;;;;;4968804;28;20547;-76
2020/12/10 00:10:03;;;;;;;10.85;6.28;;;0.80;99.90;;;;;;4972986;28;20217;-76
2020/12/10 00:12:29;;;;;;;12.82;6.75;;;0.80;99.90;;;;;;4973876;28;20203;-76
2020/12/10 00:14:54;;;;;;;9.73;6.40;;;0.70;99.90;;;;;;4962688;28;20218;-76
2020/12/10 00:17:25;;;;;;;8.30;6.60;;;0.70;99.90;;;;;;4971621;28;20627;-76
2020/12/10 00:19:50;;;;;;;9.00;5.95;;;0.70;99.90;;;;;;4972821;28;20309;-76
2020/12/10 00:22:17;;;;;;;9.77;5.97;;;0.60;99.90;;;;;;4973535;28;20316;-76
2020/12/10 00:24:43;;;;;;;11.57;6.07;;;0.60;99.90;;;;;;4972683;28;20953;-76
2020/12/10 00:27:08;;;;;;;12.02;6.65;;;0.50;99.90;;;;;;4970061;28;20183;-76
2020/12/10 00:29:34;;;;;;;12.17;7.00;;;0.50;99.90;;;;;;4971977;28;20246;-76
2020/12/10 00:32:00;;;;;;;9.63;6.60;;;0.50;99.90;;;;;;4971863;28;20678;-76
2020/12/10 00:34:25;;;;;;;10.43;5.93;;;0.40;99.90;;;;;;4972592;28;20747;-76
2020/12/10 00:36:51;;;;;;;7.87;5.70;;;0.40;99.90;;;;;;4970487;28;20765;-76
2020/12/10 00:39:17;;;;;;;7.93;5.73;;;0.40;99.90;;;;;;4972567;28;20701;-76
2020/12/10 00:41:42;;;;;;;8.67;5.70;;;0.30;99.90;;;;;;4955741;28;20693;-76
2020/12/10 00:44:08;;;;;;;10.63;5.63;;;0.30;99.90;;;;;;4971984;28;20167;-76
2020/12/10 00:46:34;;;;;;;8.80;6.67;;;0.30;99.90;;;;;;4972572;28;20175;-76
2020/12/10 00:48:59;;;;;;;9.10;6.47;;;0.30;99.90;;;;;;4972586;28;20593;-76
2020/12/10 00:51:25;;;;;;;8.00;6.23;;;0.20;99.90;;;;;;4972797;28;20191;-76
2020/12/10 00:53:51;;;;;;;9.80;6.00;;;0.20;99.90;;;;;;4967884;28;20264;-76
2020/12/10 00:56:16;;;;;;;8.87;5.07;;;0.20;99.90;;;;;;4958894;28;20254;-76
2020/12/10 00:58:45;;;;;;;10.97;6.13;;;0.20;99.90;;;;;;4949351;28;20190;-76
2020/12/10 01:01:11;;;;;;;11.10;6.82;;;0.10;99.90;;;;;;4971881;28;20274;-76
2020/12/10 01:03:36;;;;;;;9.27;5.47;;;0.10;99.90;;;;;;4972884;28;20179;-76
2020/12/10 01:06:02;;;;;;;6.07;4.47;;;0.20;99.90;;;;;;4966202;28;20295;-76
2020/12/10 01:08:28;;;;;;;9.83;6.33;;;0.10;99.90;;;;;;4964966;28;20199;-76
2020/12/10 01:10:53;;;;;;;9.50;5.67;;;0.10;99.90;;;;;;4971865;28;20215;-76
2020/12/10 01:13:19;;;;;;;7.93;5.20;;;0.10;99.90;;;;;;4972740;28;20673;-76
2020/12/10 01:15:45;;;;;;;9.60;5.90;;;0.00;99.90;;;;;;4968758;28;20272;-76
2020/12/10 01:18:10;;;;;;;8.87;6.33;;;0.00;99.90;;;;;;4973958;28;20206;-76
2020/12/10 01:20:36;;;;;;;9.53;5.53;;;0.00;99.90;;;;;;4972143;28;20218;-76
2020/12/10 01:23:02;;;;;;;8.13;5.63;;;0.00;99.90;;;;;;4972643;28;20218;-76
2020/12/10 01:25:27;;;;;;;11.63;7.23;;;0.00;99.90;;;;;;4971499;28;20574;-76
2020/12/10 01:27:53;;;;;;;8.77;6.10;;;0.00;99.90;;;;;;4971561;28;20457;-76
2020/12/10 01:30:19;;;;;;;10.07;5.90;;;0.00;99.90;;;;;;4972095;28;20223;-76
2020/12/10 01:32:45;;;;;;;11.70;6.23;;;0.10;99.90;;;;;;4972460;28;20194;-76
2020/12/10 01:35:10;;;;;;;8.97;5.83;;;0.10;99.90;;;;;;4970664;28;20261;-76
2020/12/10 01:37:36;;;;;;;9.63;6.27;;;0.00;99.90;;;;;;4972115;28;20214;-76
2020/12/10 01:40:04;;;;;;;11.63;6.27;;;0.00;99.90;;;;;;4971674;28;20221;-76
2020/12/10 01:42:29;;;;;;;10.13;5.40;;;0.00;99.90;;;;;;4972572;28;20583;-76
2020/12/10 01:44:55;;;;;;;10.90;5.50;;;0.00;99.90;;;;;;4971171;28;20682;-76
2020/12/10 01:47:26;;;;;;;9.33;5.73;;;0.00;99.90;;;;;;4971550;28;20921;-76
2020/12/10 01:49:51;;;;;;;10.95;6.30;;;-0.10;99.90;;;;;;4971945;28;20227;-76
2020/12/10 01:52:17;;;;;;;10.73;6.27;;;-0.10;99.90;;;;;;4972374;28;20210;-76
2020/12/10 01:54:43;;;;;;;11.43;6.33;;;-0.20;99.90;;;;;;4971415;28;20223;-76
2020/12/10 01:57:09;;;;;;;9.75;6.32;;;-0.20;99.90;;;;;;4971138;28;20188;-76
2020/12/10 01:59:35;;;;;;;9.03;6.03;;;-0.20;99.90;;;;;;4971825;28;20219;-76
2020/12/10 02:02:00;;;;;;;16.97;7.40;;;-0.30;99.90;;;;;;4972039;28;20222;-76
2020/12/10 02:04:34;;;;;;;15.53;7.10;;;-0.20;99.90;;;;;;4970035;28;20215;-76
2020/12/10 02:07:01;;;;;;;9.10;6.43;;;-0.20;99.90;;;;;;4967450;28;20175;-76
2020/12/10 02:09:27;;;;;;;10.50;6.28;;;-0.20;99.90;;;;;;4971406;28;20282;-76
2020/12/10 02:11:53;;;;;;;12.57;6.60;;;-0.30;99.90;;;;;;4972046;28;20202;-76
2020/12/10 02:14:20;;;;;;;11.80;6.88;;;-0.30;99.90;;;;;;4970928;28;20254;-76
2020/12/10 02:16:51;;;;;;;8.63;6.22;;;-0.30;99.90;;;;;;4965382;28;20172;-76
2020/12/10 02:19:17;;;;;;;10.50;6.25;;;-0.20;99.90;;;;;;4971646;28;20206;-76
2020/12/10 02:21:43;;;;;;;12.43;6.80;;;-0.20;99.90;;;;;;4971777;28;20187;-76
2020/12/10 02:24:08;;;;;;;16.03;8.60;;;-0.30;99.90;;;;;;4971192;28;20214;-77
2020/12/10 02:26:34;;;;;;;10.10;6.10;;;-0.30;99.90;;;;;;4971103;28;20180;-76
2020/12/10 02:29:01;;;;;;;10.80;6.43;;;-0.30;99.90;;;;;;4971371;28;20183;-77
2020/12/10 02:31:29;;;;;;;11.80;6.43;;;-0.40;99.90;;;;;;4970066;28;20238;-76
2020/12/10 02:33:59;;;;;;;13.25;6.50;;;-0.40;99.90;;;;;;4971848;28;20773;-76
2020/12/10 02:36:25;;;;;;;14.48;7.00;;;-0.40;99.90;;;;;;4967181;28;20294;-76
2020/12/10 02:38:51;;;;;;;14.10;6.50;;;-0.40;99.90;;;;;;4954580;28;20327;-76
2020/12/10 02:41:16;;;;;;;11.13;7.27;;;-0.40;99.90;;;;;;4970739;28;20493;-76
2020/12/10 02:43:42;;;;;;;8.17;5.80;;;-0.50;99.90;;;;;;4971266;28;20202;-76
2020/12/10 02:46:08;;;;;;;12.27;7.47;;;-0.50;99.90;;;;;;4968544;28;20231;-76
2020/12/10 02:48:34;;;;;;;10.93;6.40;;;-0.50;99.90;;;;;;4971758;28;20795;-76
2020/12/10 02:51:01;;;;;;;11.70;7.20;;;-0.50;99.90;;;;;;4971289;28;20462;-76
2020/12/10 02:53:28;;;;;;;8.95;7.03;;;-0.50;99.90;;;;;;4974191;28;20414;-76
2020/12/10 02:55:54;;;;;;;11.80;6.95;;;-0.50;99.90;;;;;;4973598;28;20218;-76
2020/12/10 02:58:21;;;;;;;13.70;7.40;;;-0.50;99.90;;;;;;4958120;28;20172;-76
2020/12/10 03:00:47;;;;;;;12.35;7.45;;;-0.50;99.90;;;;;;4973307;28;20613;-76
2020/12/10 03:03:13;;;;;;;13.00;6.73;;;-0.50;99.90;;;;;;4975310;28;20172;-77
2020/12/10 03:05:38;;;;;;;9.90;7.17;;;-0.60;99.90;;;;;;4974066;28;20207;-77
2020/12/10 03:08:04;;;;;;;15.70;8.20;;;-0.60;99.90;;;;;;4972833;28;20546;-76
2020/12/10 03:10:31;;;;;;;12.30;8.80;;;-0.60;99.90;;;;;;4974068;28;20223;-76
2020/12/10 03:12:56;;;;;;;13.57;7.90;;;-0.60;99.90;;;;;;4973965;28;20175;-76
2020/12/10 03:15:22;;;;;;;11.80;7.20;;;-0.50;99.90;;;;;;4969841;28;20206;-76
2020/12/10 03:17:47;;;;;;;12.80;7.80;;;-0.50;99.90;;;;;;4969799;28;20184;-76
2020/12/10 03:20:13;;;;;;;12.33;7.63;;;-0.50;99.90;;;;;;4976726;28;20207;-76
2020/12/10 03:22:39;;;;;;;13.07;7.80;;;-0.50;99.90;;;;;;4974794;28;20686;-76
2020/12/10 03:25:04;;;;;;;13.03;8.17;;;-0.60;99.90;;;;;;4974213;28;20589;-76
2020/12/10 03:27:30;;;;;;;11.90;7.13;;;-0.60;99.90;;;;;;4973835;28;20254;-76
2020/12/10 03:29:56;;;;;;;14.50;7.10;;;-0.60;99.90;;;;;;4974368;28;20221;-76
2020/12/10 03:32:21;;;;;;;10.40;7.47;;;-0.60;99.90;;;;;;4974268;28;20249;-76
2020/12/10 03:34:47;;;;;;;13.23;7.83;;;-0.60;99.90;;;;;;4973906;28;20708;-76
2020/12/10 03:37:13;;;;;;;14.50;7.77;;;-0.60;99.90;;;;;;4973250;28;20550;-76
2020/12/10 03:39:38;;;;;;;12.57;6.93;;;-0.60;99.90;;;;;;4972738;28;20253;-76
2020/12/10 03:42:04;;;;;;;12.93;7.60;;;-0.60;99.90;;;;;;4974763;28;20195;-76
2020/12/10 03:44:30;;;;;;;15.67;8.17;;;-0.60;99.90;;;;;;4972534;28;20218;-76
2020/12/10 03:46:56;;;;;;;13.50;7.07;;;-0.70;99.90;;;;;;4969511;28;20188;-76
2020/12/10 03:49:22;;;;;;;13.63;7.73;;;-0.70;99.90;;;;;;4973746;28;20769;-76
2020/12/10 03:51:48;;;;;;;15.20;7.80;;;-0.70;99.90;;;;;;4974284;28;20845;-76
2020/12/10 03:54:13;;;;;;;15.90;8.33;;;-0.80;99.90;;;;;;4973803;28;20502;-76
2020/12/10 03:56:39;;;;;;;11.63;7.50;;;-0.80;99.90;;;;;;4945191;28;20465;-76
2020/12/10 03:59:05;;;;;;;15.63;6.90;;;-0.80;99.90;;;;;;4973164;28;20172;-76
2020/12/10 04:01:31;;;;;;;13.57;7.72;;;-0.80;99.90;;;;;;4972982;28;20289;-76
2020/12/10 04:03:57;;;;;;;12.13;7.00;;;-0.80;99.90;;;;;;4972390;28;20168;-76
2020/12/10 04:06:24;;;;;;;10.18;6.25;;;-0.80;99.90;;;;;;4968862;28;20243;-76
2020/12/10 04:08:50;;;;;;;11.30;7.03;;;-0.80;99.90;;;;;;4951500;28;20175;-76
2020/12/10 04:11:16;;;;;;;12.55;7.20;;;-0.80;99.90;;;;;;4973003;28;20285;-76
2020/12/10 04:13:42;;;;;;;12.75;7.45;;;-0.80;99.90;;;;;;4973034;28;20183;-76
2020/12/10 04:16:08;;;;;;;12.57;6.87;;;-0.80;99.90;;;;;;4970349;28;20282;-76
2020/12/10 04:18:38;;;;;;;13.40;7.53;;;-0.90;99.90;;;;;;4974104;28;20183;-76
2020/12/10 04:21:05;;;;;;;13.85;7.53;;;-0.80;99.90;;;;;;4973138;28;20613;-76
2020/12/10 04:23:31;;;;;;;14.60;7.60;;;-0.80;99.90;;;;;;4972639;28;20167;-76
2020/12/10 04:25:57;;;;;;;14.13;7.77;;;-0.90;99.90;;;;;;4971780;28;20258;-76
2020/12/10 04:28:22;;;;;;;11.03;7.40;;;-0.80;99.90;;;;;;4972511;28;20183;-76
2020/12/10 04:30:48;;;;;;;13.40;7.33;;;-0.80;99.90;;;;;;4973234;28;20641;-76
2020/12/10 04:33:14;;;;;;;14.07;8.80;;;-0.80;99.90;;;;;;4973345;28;20254;-76
2020/12/10 04:35:41;;;;;;;12.85;9.02;;;-0.80;99.90;;;;;;4966092;28;20838;-76
2020/12/10 04:38:07;;;;;;;15.55;8.70;;;-0.80;99.90;;;;;;4972430;28;20179;-76
2020/12/10 04:40:34;;;;;;;13.63;8.52;;;-0.80;99.90;;;;;;4971603;28;20968;-76
2020/12/10 04:43:08;;;;;;;10.30;7.55;;;-0.80;99.90;;;;;;4973593;28;20171;-76
2020/12/10 04:45:34;;;;;;;18.10;9.60;;;-0.80;99.90;;;;;;4958793;28;20277;-76
2020/12/10 04:48:00;;;;;;;12.48;8.80;;;-0.90;99.90;;;;;;4971461;28;20175;-76
2020/12/10 04:50:28;;;;;;;13.10;8.73;;;-0.80;99.90;;;;;;4972522;28;20253;-76
2020/12/10 04:52:54;;;;;;;13.45;8.07;;;-0.80;99.90;;;;;;4971834;28;20172;-76
2020/12/10 04:55:21;;;;;;;13.88;7.80;;;-0.90;99.90;;;;;;4971307;28;20218;-76
2020/12/10 04:57:47;;;;;;;18.55;9.57;;;-0.90;99.90;;;;;;4962842;28;20947;-76
2020/12/10 05:00:15;;;;;;;14.18;7.95;;;-0.90;99.90;;;;;;4972858;28;20211;-76
2020/12/10 05:02:45;;;;;;;16.73;8.07;;;-0.80;99.90;;;;;;4971942;28;20175;-76
2020/12/10 05:05:29;;;;;;;15.15;8.73;;;-0.90;99.90;;;;;;4969712;28;20211;-76
2020/12/10 05:07:57;;;;;;;15.77;8.20;;;-0.90;99.90;;;;;;4962704;28;20229;-76
2020/12/10 05:10:23;;;;;;;14.00;8.25;;;-0.90;99.90;;;;;;4972775;28;20573;-76
2020/12/10 05:12:50;;;;;;;13.25;8.18;;;-0.90;99.90;;;;;;4971718;28;20214;-76
2020/12/10 05:15:31;;;;;;;14.13;8.25;;;-0.90;99.90;;;;;;4968543;28;20212;-76
2020/12/10 05:18:07;;;;;;;16.77;8.32;;;-1.00;99.90;;;;;;4962543;28;20638;-76
2020/12/10 05:20:40;;;;;;;17.48;8.63;;;-1.00;99.90;;;;;;4971743;28;20227;-76
2020/12/10 05:23:08;;;;;;;12.35;8.00;;;-1.00;99.90;;;;;;4978587;28;20259;-76
2020/12/10 05:25:51;;;;;;;13.23;8.07;;;-1.10;99.90;;;;;;4972041;28;20215;-76
2020/12/10 05:28:21;;;;;;;12.65;8.55;;;-1.10;99.90;;;;;;4971009;28;20175;-76
2020/12/10 05:31:04;;;;;;;14.20;9.02;;;-1.10;99.90;;;;;;4972025;28;20237;-76
2020/12/10 05:33:30;;;;;;;14.25;9.18;;;-1.10;99.90;;;;;;4972908;28;20176;-76
2020/12/10 05:36:12;;;;;;;14.47;9.10;;;-1.10;99.90;;;;;;4970212;28;20231;-76
2020/12/10 05:39:07;;;;;;;15.52;9.25;;;-1.10;99.90;;;;;;4957827;28;20421;-76
2020/12/10 05:41:35;;;;;;;13.65;8.15;;;-1.10;99.90;;;;;;4971960;28;20207;-76
2020/12/10 05:44:17;;;;;;;12.57;7.88;;;-1.10;99.90;;;;;;4972721;28;20530;-76
2020/12/10 05:46:43;;;;;;;16.80;9.73;;;-1.10;99.90;;;;;;4971321;28;20261;-76
2020/12/10 05:49:13;;;;;;;15.40;8.52;;;-1.10;99.90;;;;;;4971874;28;20211;-76
2020/12/10 05:51:48;;;;;;;13.93;9.10;;;-1.20;99.90;;;;;;4972281;28;20199;-76
2020/12/10 05:54:15;;;;;;;13.45;9.35;;;-1.20;99.90;;;;;;4971974;28;20667;-76
2020/12/10 05:57:05;;;;;;;14.30;9.45;;;-1.20;99.90;;;;;;4962834;28;20669;-76
2020/12/10 05:59:32;;;;;;;15.27;9.77;;;-1.20;99.90;;;;;;4971644;28;20583;-76
2020/12/10 06:02:01;;;;;;;14.95;8.73;;;-1.20;99.90;;;;;;4972524;28;20250;-76
2020/12/10 06:04:27;;;;;;;14.88;9.75;;;-1.30;99.90;;;;;;4971021;28;20329;-76
2020/12/10 06:06:58;;;;;;;15.10;10.15;;;-1.30;99.90;;;;;;4963526;28;20176;-76
2020/12/10 06:09:25;;;;;;;13.25;8.50;;;-1.20;99.90;;;;;;4970781;28;20270;-76
2020/12/10 06:12:04;;;;;;;13.38;8.52;;;-1.20;99.90;;;;;;4972095;28;20197;-76
2020/12/10 06:14:29;;;;;;;14.85;9.65;;;-1.30;99.90;;;;;;4971561;28;20214;-75
2020/12/10 06:17:08;;;;;;;14.77;9.13;;;-1.30;99.90;;;;;;4969334;28;20175;-76
2020/12/10 06:19:35;;;;;;;11.73;7.97;;;-1.20;99.90;;;;;;4956332;28;20210;-76
2020/12/10 06:22:24;;;;;;;15.80;8.77;;;-1.20;99.90;;;;;;4972426;28;20203;-76
2020/12/10 06:24:50;;;;;;;14.75;8.40;;;-1.20;99.90;;;;;;4943889;28;20572;-76
2020/12/10 06:27:27;;;;;;;16.05;9.40;;;-1.20;99.90;;;;;;4970105;28;20179;-76
2020/12/10 06:30:16;;;;;;;13.27;9.02;;;-1.30;99.90;;;;;;4975420;28;20218;-76
2020/12/10 06:32:43;;;;;;;13.82;8.70;;;-1.30;99.90;;;;;;4976230;28;20665;-76
2020/12/10 06:35:29;;;;;;;13.13;8.90;;;-1.30;99.90;;;;;;4975317;28;20235;-76
2020/12/10 06:37:55;;;;;;;11.38;7.90;;;-1.30;99.90;;;;;;4974922;28;20677;-76
2020/12/10 06:40:30;;;;;;;17.48;10.30;;;-1.30;99.90;;;;;;4975078;28;20226;-76
2020/12/10 06:42:55;;;;;;;14.93;9.25;;;-1.30;99.90;;;;;;4975535;28;20249;-76
2020/12/10 06:45:34;;;;;;;14.10;8.00;;;-1.30;99.90;;;;;;4974815;28;20294;-76
2020/12/10 06:48:05;;;;;;;14.88;8.48;;;-1.30;99.90;;;;;;4971099;28;20406;-76
2020/12/10 06:50:33;;;;;;;16.75;8.52;;;-1.30;99.90;;;;;;4974805;28;20211;-76
2020/12/10 06:53:15;;;;;;;16.88;9.60;;;-1.30;99.90;;;;;;4975415;28;20163;-76
2020/12/10 06:55:56;;;;;;;13.63;8.85;;;-1.30;99.90;;;;;;4974395;28;20222;-76
2020/12/10 06:58:44;;;;;;;13.05;8.30;;;-1.30;99.90;;;;;;4956762;28;20265;-76
2020/12/10 07:01:36;;;;;;;15.90;9.60;;;-1.30;99.90;;;;;;4974564;28;20245;-76
2020/12/10 07:07:09;;;;;;;16.23;10.82;;;-1.30;99.90;;;;;;4974183;28;20187;-76
2020/12/10 07:09:57;;;;;;;14.07;8.27;;;-1.30;99.90;;;;;;4967336;28;20558;-76
2020/12/10 07:12:26;;;;;;;13.13;8.75;;;-1.30;99.90;;;;;;4975021;28;20213;-76
2020/12/10 07:15:08;;;;;;;15.85;8.60;;;-1.20;99.90;;;;;;4975843;28;20210;-76
2020/12/10 07:17:34;;;;;;;15.18;9.32;;;-1.20;99.90;;;;;;4969543;28;20171;-76
2020/12/10 07:20:00;;;;;;;12.17;9.57;;;-1.20;99.90;;;;;;4973929;28;20210;-76
2020/12/10 07:22:25;;;;;;;13.57;8.97;;;-1.30;99.90;;;;;;4974808;28;20918;-76
2020/12/10 07:24:51;;;;;;;16.60;9.30;;;-1.20;99.90;;;;;;4974436;28;20203;-76
2020/12/10 07:27:16;;;;;;;14.83;9.87;;;-1.20;99.90;;;;;;4971980;28;20175;-76
2020/12/10 07:29:51;;;;;;;15.43;9.47;;;-1.20;99.90;;;;;;4974123;28;20226;-76
2020/12/10 07:32:17;;;;;;;15.25;8.43;;;-1.30;99.90;;;;;;4974292;28;20249;-76
2020/12/10 07:34:45;;;;;;;16.40;10.57;;;-1.30;99.90;;;;;;4972624;28;20235;-76
2020/12/10 07:37:12;;;;;;;13.75;8.40;;;-1.30;99.90;;;;;;4971137;28;20171;-77
2020/12/10 07:39:38;;;;;;;13.38;8.30;;;-1.30;99.90;;;;;;4974340;28;20207;-76
2020/12/10 07:42:05;;;;;;;14.32;8.30;;;-1.40;99.90;;;;;;4974508;28;20266;-76
2020/12/10 07:44:32;;;;;;;13.40;8.15;;;-1.40;99.90;;;;;;4973347;28;20218;-76
2020/12/10 07:46:59;;;;;;;14.80;8.70;;;-1.40;99.90;;;;;;4954673;28;20175;-76
2020/12/10 07:49:30;;;;;;;16.33;8.63;;;-1.30;99.90;;;;;;4973951;28;20757;-76
2020/12/10 07:52:06;;;;;;;13.93;8.60;;;-1.30;99.90;;;;;;4974778;28;20195;-76
2020/12/10 07:54:49;;;;;;;12.70;8.80;;;-1.30;99.90;;;;;;4973200;28;20755;-76
2020/12/10 07:57:40;;;;;;;14.95;8.60;;;-1.30;99.90;;;;;;4973233;28;20175;-76
2020/12/10 08:00:13;;;;;;;12.55;8.38;;;-1.30;99.90;;;;;;4973672;28;20625;-76
2020/12/10 08:03:15;;;;;;;14.25;8.13;;;-1.20;99.90;;;;;;4967343;28;20191;-75
2020/12/10 08:05:44;;;;;;;13.98;8.00;;;-1.20;99.90;;;;;;4970233;28;20210;-76
2020/12/10 08:08:10;;;;;;;13.48;7.65;;;-1.20;99.90;;;;;;4963717;28;20179;-76
2020/12/10 08:10:38;;;;;;;13.75;8.98;;;-1.10;99.90;;;;;;4973622;28;20589;-76
2020/12/10 08:13:08;;;;;;;13.77;8.10;;;-1.10;99.90;;;;;;4974207;28;20230;-77
2020/12/10 08:15:34;;;;;;;13.38;8.82;;;-1.10;99.90;;;;;;4972262;28;20211;-75
2020/12/10 08:18:05;;;;;;;13.95;8.60;;;-1.10;99.90;;;;;;4971224;28;20179;-76
2020/12/10 08:20:41;;;;;;;10.70;8.00;;;-1.10;99.90;;;;;;4972933;28;20215;-76
2020/12/10 08:23:10;;;;;;;17.00;8.95;;;-1.10;99.90;;;;;;4973647;28;20254;-76
2020/12/10 08:25:36;;;;;;;14.93;8.95;;;-1.10;99.90;;;;;;4954219;28;20223;-76
2020/12/10 08:28:06;;;;;;;13.10;9.23;;;-1.00;99.90;;;;;;4971906;28;20183;-76
2020/12/10 08:30:33;;;;;;;13.75;9.10;;;-1.10;99.90;;;;;;4971988;28;20977;-76
2020/12/10 08:32:59;;;;;;;16.20;9.75;;;-1.00;99.90;;;;;;4972506;28;20175;-76
2020/12/10 08:35:26;;;;;;;14.48;9.48;;;-1.00;99.90;;;;;;4950327;28;20298;-76
2020/12/10 08:37:52;;;;;;;21.08;9.35;;;-1.00;99.90;;;;;;4956697;28;20172;-76
2020/12/10 08:40:30;;;;;;;15.23;10.67;;;-1.00;99.90;;;;;;4971223;28;20246;-76
2020/12/10 08:43:14;;;;;;;16.83;10.43;;;-0.90;99.90;;;;;;4971796;28;20169;-77
2020/12/10 08:45:44;;;;;;;17.70;11.50;;;-0.90;99.90;;;;;;4970356;28;20207;-77
2020/12/10 08:48:15;;;;;;;18.35;9.70;;;-0.90;99.90;;;;;;4972333;28;20665;-76
2020/12/10 08:51:00;;;;;;;15.00;9.70;;;-0.80;99.90;;;;;;4970469;28;20253;-76
2020/12/10 08:53:26;;;;;;;16.15;9.75;;;-0.80;99.90;;;;;;4968437;28;20175;-76
2020/12/10 08:55:54;;;;;;;14.40;9.75;;;-0.70;99.90;;;;;;4963087;28;20698;-76
2020/12/10 08:58:26;;;;;;;18.52;10.18;;;-0.70;99.90;;;;;;4971251;28;20179;-76
2020/12/10 09:00:53;;;;;;;13.50;8.63;;;-0.70;99.90;;;;;;4972090;28;20570;-76
2020/12/10 09:03:20;;;;;;;15.70;10.15;;;-0.60;99.90;;;;;;4972324;28;20171;-76
2020/12/10 09:05:46;;;;;;;17.08;9.63;;;-0.50;99.90;;;;;;4971275;28;20254;-76
2020/12/10 09:08:13;;;;;;;20.70;10.33;;;-0.50;99.90;;;;;;4965080;28;20179;-76
2020/12/10 09:10:39;;;;;;;19.27;11.30;;;-0.40;99.90;;;;;;4972020;28;20976;-76
2020/12/10 09:13:05;;;;;;;19.95;12.40;;;-0.40;99.90;;;;;;4971805;28;20187;-76
2020/12/10 09:15:30;;;;;;;15.77;10.37;;;-0.40;99.90;;;;;;4970755;28;20222;-76
2020/12/10 09:17:57;;;;;;;20.63;10.90;;;-0.40;99.90;;;;;;4973418;28;20429;-76
2020/12/10 09:20:23;;;;;;;17.25;12.20;;;-0.40;99.90;;;;;;4953812;28;20465;-77
2020/12/10 09:22:49;;;;;;;18.35;10.63;;;-0.40;99.90;;;;;;4971935;28;20245;-76
2020/12/10 09:25:15;;;;;;;18.40;11.83;;;-0.40;99.90;;;;;;4963984;28;20207;-76
2020/12/10 09:27:41;;;;;;;16.73;9.47;;;-0.30;99.90;;;;;;4971423;28;20431;-76
2020/12/10 09:30:08;;;;;;;17.83;10.37;;;-0.40;99.90;;;;;;4971059;28;20509;-76
2020/12/10 09:32:35;;;;;;;17.15;11.93;;;-0.30;99.90;;;;;;4972205;28;20442;-76
2020/12/10 09:35:07;;;;;;;18.90;10.55;;;-0.30;99.90;;;;;;4971786;28;20273;-76
2020/12/10 09:37:36;;;;;;;17.80;10.45;;;-0.30;99.90;;;;;;4966747;28;20187;-76
2020/12/10 09:40:05;;;;;;;19.05;10.25;;;-0.30;99.90;;;;;;4971221;28;20242;-76
2020/12/10 09:42:32;;;;;;;24.83;11.38;;;-0.30;99.90;;;;;;4971320;28;20220;-76
2020/12/10 09:44:58;;;;;;;17.67;11.05;;;-0.30;99.90;;;;;;4971030;28;20203;-76
2020/12/10 09:47:24;;;;;;;19.00;10.23;;;-0.30;99.90;;;;;;4971271;28;20190;-76
2020/12/10 09:49:49;;;;;;;17.10;10.23;;;-0.30;99.90;;;;;;4953888;28;20468;-76
2020/12/10 09:52:15;;;;;;;15.87;10.60;;;-0.30;99.90;;;;;;4970007;28;20198;-76
2020/12/10 09:57:10;;;;;;;16.63;10.83;;;-0.30;99.90;;;;;;4971008;28;20462;-76
2020/12/10 09:59:38;;;;;;;15.05;10.50;;;-0.30;99.90;;;;;;4953835;28;20485;-76
2020/12/10 10:02:04;;;;;;;19.25;10.93;;;-0.30;99.90;;;;;;4973148;28;20198;-76
2020/12/10 10:04:30;;;;;;;22.73;11.65;;;-0.20;99.90;;;;;;4957875;28;20211;-76
2020/12/10 10:06:56;;;;;;;21.80;11.45;;;-0.20;99.90;;;;;;4974047;28;20168;-76
2020/12/10 10:09:25;;;;;;;15.90;11.10;;;-0.20;99.90;;;;;;4974955;28;20563;-76
2020/12/10 10:11:52;;;;;;;21.48;11.95;;;-0.20;99.90;;;;;;4974299;28;21251;-76
2020/12/10 10:14:18;;;;;;;18.42;10.88;;;-0.20;99.90;;;;;;4975109;28;20215;-76
2020/12/10 10:16:44;;;;;;;16.77;11.40;;;-0.10;99.90;;;;;;4967600;28;20187;-77
2020/12/10 10:19:09;;;;;;;19.02;11.25;;;-0.10;99.90;;;;;;4970798;28;20646;-76
2020/12/10 10:21:35;;;;;;;17.80;12.13;;;-0.10;99.90;;;;;;4965036;28;20211;-76
2020/12/10 10:24:01;;;;;;;21.87;11.77;;;-0.10;99.90;;;;;;4975456;28;20182;-76
2020/12/10 10:26:26;;;;;;;22.00;13.43;;;0.00;99.90;;;;;;4973756;28;20650;-77
2020/12/10 10:28:53;;;;;;;19.57;11.80;;;0.00;99.90;;;;;;4975372;28;20262;-76
2020/12/10 10:31:20;;;;;;;18.33;10.95;;;0.00;99.90;;;;;;4952907;28;20706;-76
2020/12/10 10:33:45;;;;;;;18.75;12.13;;;0.00;99.90;;;;;;4956118;29;20168;-76
2020/12/10 10:36:12;;;;;;;19.33;10.10;;;0.00;99.90;;;;;;4951444;28;20216;-76
2020/12/10 10:38:37;;;;;;;18.90;11.80;;;0.10;99.90;;;;;;4954825;28;20440;-76
2020/12/10 10:41:03;;;;;;;19.23;11.20;;;0.10;99.90;;;;;;4955201;28;20636;-77
2020/12/10 10:43:29;;;;;;;19.00;10.60;;;0.10;99.90;;;;;;4955717;29;20175;-77
2020/12/10 10:45:55;;;;;;;19.05;11.02;;;0.10;99.90;;;;;;4952999;28;20870;-76
2020/12/10 10:48:21;;;;;;;17.60;11.60;;;0.20;99.90;;;;;;4952472;29;20176;-76
2020/12/10 10:50:46;;;;;;;19.07;10.50;;;0.20;99.90;;;;;;4969474;28;20694;-76
2020/12/10 10:53:12;;;;;;;18.03;11.20;;;0.20;99.90;;;;;;4955345;29;20172;-76
2020/12/10 10:55:38;;;;;;;16.93;10.03;;;0.30;99.90;;;;;;4948607;28;20238;-76
2020/12/10 10:58:03;;;;;;;17.33;11.00;;;0.30;99.90;;;;;;4953108;29;20655;-76
2020/12/10 11:00:29;;;;;;;21.23;11.00;;;0.30;99.90;;;;;;4963328;28;20215;-76
2020/12/10 11:02:55;;;;;;;15.30;10.32;;;0.30;99.90;;;;;;4962277;28;20180;-76
2020/12/10 11:05:21;;;;;;;17.97;9.90;;;0.30;99.90;;;;;;4954401;28;20714;-76
2020/12/10 11:07:46;;;;;;;18.30;10.83;;;0.40;99.90;;;;;;4951667;29;20538;-76
2020/12/10 11:10:12;;;;;;;25.00;10.80;;;0.40;99.90;;;;;;4954775;28;20230;-76
2020/12/10 11:12:41;;;;;;;21.80;12.95;;;0.40;99.90;;;;;;4954329;28;20187;-76
2020/12/10 11:15:07;;;;;;;23.65;12.52;;;0.40;99.90;;;;;;4954997;28;20219;-76
2020/12/10 11:17:33;;;;;;;18.67;12.20;;;0.40;99.90;;;;;;4959012;28;20184;-76
2020/12/10 11:19:58;;;;;;;27.17;14.33;;;0.50;99.90;;;;;;4954406;28;20518;-76
2020/12/10 11:22:24;;;;;;;25.80;17.30;;;0.50;99.90;;;;;;4955130;28;20439;-76
2020/12/10 11:24:50;;;;;;;24.43;13.37;;;0.50;99.90;;;;;;4947374;28;20216;-76
2020/12/10 11:27:15;;;;;;;22.67;13.27;;;0.50;99.90;;;;;;4941708;29;20177;-76
2020/12/10 11:29:41;;;;;;;28.73;15.27;;;0.50;99.90;;;;;;4953946;28;20295;-76
2020/12/10 11:32:07;;;;;;;25.00;14.63;;;0.60;99.90;;;;;;4955077;28;20180;-77
2020/12/10 11:34:32;;;;;;;30.43;19.80;;;0.60;99.90;;;;;;4954067;28;20235;-76
2020/12/10 11:36:58;;;;;;;28.60;22.90;;;0.60;99.90;;;;;;4945713;29;20172;-76
2020/12/10 11:39:24;;;;;;;27.77;18.07;;;0.60;99.90;;;;;;4954422;28;20741;-76
2020/12/10 11:41:53;;;;;;;32.53;22.43;;;0.70;99.90;;;;;;4969401;28;20222;-76
2020/12/10 11:44:18;;;;;;;31.58;20.30;;;0.70;99.90;;;;;;4954043;28;20203;-77
2020/12/10 11:46:48;;;;;;;39.10;22.80;;;0.70;99.90;;;;;;4953421;29;20520;-76
2020/12/10 11:49:14;;;;;;;28.88;16.88;;;0.70;99.90;;;;;;4953736;28;20918;-77
2020/12/10 11:51:40;;;;;;;33.50;19.38;;;0.70;99.90;;;;;;4954048;29;20192;-77
2020/12/10 11:54:06;;;;;;;26.00;17.48;;;0.70;99.90;;;;;;4953517;28;20178;-76
2020/12/10 11:56:32;;;;;;;32.70;18.07;;;0.70;99.90;;;;;;4948184;28;20271;-77
2020/12/10 11:58:58;;;;;;;25.20;18.30;;;0.70;99.90;;;;;;4948811;28;20180;-76
2020/12/10 12:01:25;;;;;;;28.85;17.08;;;0.80;99.90;;;;;;4953833;28;20247;-76
2020/12/10 12:03:51;;;;;;;30.85;19.58;;;0.70;99.90;;;;;;4953818;29;20602;-77
2020/12/10 12:06:17;;;;;;;31.53;20.80;;;0.80;99.90;;;;;;4944505;29;20295;-76
2020/12/10 12:08:43;;;;;;;32.28;21.27;;;0.80;99.90;;;;;;4953978;29;20180;-76
2020/12/10 12:11:09;;;;;;;39.43;25.60;;;0.80;99.90;;;;;;4953417;28;20227;-77
2020/12/10 12:13:35;;;;;;;27.75;19.52;;;0.80;99.90;;;;;;4954077;29;20180;-76
2020/12/10 12:16:00;;;;;;;32.43;19.30;;;0.80;99.90;;;;;;4958288;28;20257;-76
2020/12/10 12:18:27;;;;;;;29.60;19.50;;;0.90;99.90;;;;;;4953873;28;20418;-76
2020/12/10 12:20:53;;;;;;;40.50;28.08;;;0.90;99.90;;;;;;4967696;28;20765;-76
2020/12/10 12:23:19;;;;;;;34.20;23.20;;;0.90;99.90;;;;;;4953871;29;20311;-76
2020/12/10 12:25:45;;;;;;;41.97;30.70;;;0.90;99.90;;;;;;4961606;28;20467;-76
2020/12/10 12:28:11;;;;;;;37.63;27.73;;;0.90;99.90;;;;;;4953294;29;20184;-77
2020/12/10 12:30:37;;;;;;;37.23;26.43;;;0.90;99.90;;;;;;4952915;28;20216;-76
2020/12/10 12:33:03;;;;;;;31.83;23.83;;;0.90;99.90;;;;;;4954064;29;20174;-77
2020/12/10 12:35:30;;;;;;;28.48;21.52;;;0.90;99.90;;;;;;4934254;29;20456;-77
2020/12/10 12:37:56;;;;;;;31.33;20.20;;;1.00;99.90;;;;;;4937803;29;20204;-77
2020/12/10 12:40:21;;;;;;;21.57;16.97;;;0.90;99.90;;;;;;4952603;28;20258;-77
2020/12/10 12:42:47;;;;;;;21.77;15.53;;;0.90;99.90;;;;;;4952933;29;20416;-77
2020/12/10 12:45:13;;;;;;;21.50;16.47;;;0.90;99.90;;;;;;4949130;28;20200;-77
2020/12/10 12:47:42;;;;;;;18.27;12.90;;;0.90;99.90;;;;;;4949709;29;20460;-77